createdAt,value
2022-08-17T00:00:01.424Z,13.39
2022-08-17T00:01:01.474Z,13.22
2022-08-17T00:02:01.543Z,13.56
2022-08-17T00:03:01.779Z,13.39
2022-08-17T00:04:01.421Z,13.39
2022-08-17T00:05:01.431Z,13.56
2022-08-17T00:06:01.416Z,13.22
2022-08-17T00:07:01.424Z,13.39
2022-08-17T00:08:01.423Z,13.22
2022-08-17T00:09:01.426Z,13.22
2022-08-17T00:10:01.428Z,13.11
2022-08-17T00:11:01.441Z,12.5
2022-08-17T00:12:03.865Z,12.5
2022-08-17T00:13:01.433Z,12.17
2022-08-17T00:14:01.433Z,12.17
2022-08-17T00:15:01.446Z,12
2022-08-17T00:16:01.432Z,12
2022-08-17T00:17:01.431Z,12.17
2022-08-17T00:18:01.432Z,12.5
2022-08-17T00:19:08.079Z,12.5
2022-08-17T00:20:01.430Z,12.5
2022-08-17T00:21:01.434Z,12.61
2022-08-17T00:22:31.136Z,12.78
2022-08-17T00:23:01.429Z,12.33
2022-08-17T00:24:01.435Z,13.11
2022-08-17T00:25:01.438Z,12.94
2022-08-17T00:26:01.439Z,12.94
2022-08-17T00:27:01.432Z,13.11
2022-08-17T00:28:01.444Z,12.94
2022-08-17T00:29:01.439Z,12.94
2022-08-17T00:30:01.440Z,12.94
2022-08-17T00:31:01.441Z,12.94
2022-08-17T00:32:01.444Z,12.94
2022-08-17T00:33:10.376Z,12.94
2022-08-17T00:34:01.438Z,13.11
2022-08-17T00:35:01.444Z,13.11
2022-08-17T00:36:01.437Z,12.94
2022-08-17T00:37:01.445Z,12.78
2022-08-17T00:38:01.436Z,12.94
2022-08-17T00:39:01.438Z,12.78
2022-08-17T00:40:01.492Z,12.61
2022-08-17T00:41:01.439Z,12.5
2022-08-17T00:42:01.437Z,12.5
2022-08-17T00:43:01.439Z,12.33
2022-08-17T00:44:01.438Z,12.17
2022-08-17T00:45:01.442Z,12.17
2022-08-17T00:46:01.442Z,12.33
2022-08-17T00:47:01.447Z,12.5
2022-08-17T00:48:01.447Z,12.5
2022-08-17T00:49:01.441Z,12.78
2022-08-17T00:50:01.449Z,12.94
2022-08-17T00:51:01.450Z,12.78
2022-08-17T00:52:01.438Z,12.94
2022-08-17T00:53:01.443Z,12.94
2022-08-17T00:54:01.439Z,12.94
2022-08-17T00:55:01.442Z,12.94
2022-08-17T00:56:01.449Z,13.11
2022-08-17T00:57:01.439Z,12.94
2022-08-17T00:58:01.436Z,13.11
2022-08-17T00:59:01.439Z,12.94
2022-08-17T01:00:01.682Z,13.11
2022-08-17T01:01:01.521Z,13.22
2022-08-17T01:02:01.445Z,12.94
2022-08-17T01:03:01.448Z,12.94
2022-08-17T01:04:01.440Z,13.11
2022-08-17T01:05:01.452Z,12.94
2022-08-17T01:06:01.448Z,13.11
2022-08-17T01:07:01.442Z,12.94
2022-08-17T01:08:01.459Z,12.94
2022-08-17T01:09:01.443Z,12.94
2022-08-17T01:10:01.450Z,12.94
2022-08-17T01:11:02.034Z,12.78
2022-08-17T01:12:01.450Z,12.33
2022-08-17T01:13:01.455Z,12.33
2022-08-17T01:14:01.466Z,12.5
2022-08-17T01:15:01.450Z,12.5
2022-08-17T01:16:01.452Z,12.17
2022-08-17T01:17:01.448Z,12.17
2022-08-17T01:18:01.454Z,12.5
2022-08-17T01:19:01.464Z,12.5
2022-08-17T01:20:01.462Z,12.5
2022-08-17T01:21:01.463Z,11.89
2022-08-17T01:22:01.459Z,12.17
2022-08-17T01:23:01.463Z,12
2022-08-17T01:24:01.459Z,12.33
2022-08-17T01:25:01.454Z,12.5
2022-08-17T01:26:01.481Z,12.78
2022-08-17T01:27:01.462Z,12.5
2022-08-17T01:28:01.461Z,12.78
2022-08-17T01:29:01.463Z,12.5
2022-08-17T01:30:01.478Z,12.61
2022-08-17T01:31:01.466Z,12.78
2022-08-17T01:32:01.461Z,12.61
2022-08-17T01:33:01.458Z,12.5
2022-08-17T01:34:01.781Z,12.94
2022-08-17T01:35:01.463Z,12.5
2022-08-17T01:36:01.460Z,12.5
2022-08-17T01:37:01.463Z,12.61
2022-08-17T01:38:01.465Z,12.56
2022-08-17T01:39:01.478Z,12.61
2022-08-17T01:40:01.485Z,12.5
2022-08-17T01:41:01.464Z,12.5
2022-08-17T01:42:01.475Z,12.5
2022-08-17T01:43:01.482Z,12
2022-08-17T01:44:01.470Z,12.17
2022-08-17T01:45:01.466Z,12
2022-08-17T01:46:02.611Z,12.17
2022-08-17T01:47:01.476Z,12.33
2022-08-17T01:48:01.476Z,12.17
2022-08-17T01:49:01.472Z,12.33
2022-08-17T01:50:01.468Z,12.33
2022-08-17T01:51:01.473Z,12.28
2022-08-17T01:52:01.469Z,12.5
2022-08-17T01:53:01.480Z,12.5
2022-08-17T01:54:01.467Z,12.5
2022-08-17T01:55:01.473Z,12.5
2022-08-17T01:56:01.471Z,12.5
2022-08-17T01:57:01.469Z,12.28
2022-08-17T01:58:01.472Z,12.5
2022-08-17T01:59:01.488Z,12.33
2022-08-17T02:00:01.471Z,12.56
2022-08-17T02:01:01.784Z,12.44
2022-08-17T02:02:01.469Z,12.72
2022-08-17T02:03:01.477Z,12.56
2022-08-17T02:04:01.950Z,12.78
2022-08-17T02:05:01.481Z,12.28
2022-08-17T02:06:01.471Z,12.33
2022-08-17T02:07:01.467Z,12.11
2022-08-17T02:08:01.468Z,11.94
2022-08-17T02:09:03.330Z,11.83
2022-08-17T02:10:01.469Z,11.94
2022-08-17T02:11:01.465Z,11.89
2022-08-17T02:12:04.801Z,11.89
2022-08-17T02:13:01.466Z,11.78
2022-08-17T02:14:02.386Z,11.89
2022-08-17T02:15:01.463Z,11.94
2022-08-17T02:16:01.479Z,11.89
2022-08-17T02:17:01.474Z,11.89
2022-08-17T02:18:01.469Z,11.78
2022-08-17T02:19:01.473Z,11.5
2022-08-17T02:20:01.471Z,11.56
2022-08-17T02:21:01.479Z,11.56
2022-08-17T02:22:01.473Z,11.72
2022-08-17T02:23:01.473Z,11.67
2022-08-17T02:24:01.481Z,11.78
2022-08-17T02:25:02.241Z,11.78
2022-08-17T02:26:01.474Z,11.67
2022-08-17T02:27:01.484Z,11.72
2022-08-17T02:28:01.483Z,11.83
2022-08-17T02:29:01.478Z,11.89
2022-08-17T02:30:01.489Z,11.83
2022-08-17T02:31:03.051Z,11.83
2022-08-17T02:32:01.492Z,11.83
2022-08-17T02:33:04.101Z,11.61
2022-08-17T02:34:04.334Z,11.61
2022-08-17T02:35:01.485Z,11.83
2022-08-17T02:36:01.487Z,11.83
2022-08-17T02:37:01.487Z,11.83
2022-08-17T02:38:01.488Z,11.61
2022-08-17T02:39:01.500Z,11.83
2022-08-17T02:40:01.535Z,11.83
2022-08-17T02:41:01.491Z,11.83
2022-08-17T02:42:01.508Z,11.83
2022-08-17T02:43:01.488Z,11.72
2022-08-17T02:44:01.494Z,11.94
2022-08-17T02:45:01.492Z,11.83
2022-08-17T02:46:01.501Z,11.72
2022-08-17T02:47:01.493Z,11.83
2022-08-17T02:48:01.494Z,11.83
2022-08-17T02:49:01.497Z,11.83
2022-08-17T02:50:01.490Z,11.61
2022-08-17T02:51:01.489Z,11.44
2022-08-17T02:52:01.498Z,11.28
2022-08-17T02:53:02.811Z,11.44
2022-08-17T02:54:39.031Z,11.11
2022-08-17T02:55:01.491Z,11.5
2022-08-17T02:56:01.494Z,11.28
2022-08-17T02:57:01.491Z,11.44
2022-08-17T02:58:01.510Z,11.44
2022-08-17T02:59:01.498Z,11.44
2022-08-17T03:00:01.497Z,11.44
2022-08-17T03:01:01.500Z,11.44
2022-08-17T03:02:01.558Z,11.61
2022-08-17T03:03:01.502Z,11.83
2022-08-17T03:04:01.501Z,11.61
2022-08-17T03:05:01.504Z,11.72
2022-08-17T03:06:01.505Z,11.94
2022-08-17T03:07:01.500Z,11.83
2022-08-17T03:08:01.502Z,11.94
2022-08-17T03:09:01.498Z,11.83
2022-08-17T03:10:01.513Z,11.94
2022-08-17T03:11:01.504Z,11.94
2022-08-17T03:12:01.502Z,12.11
2022-08-17T03:13:01.499Z,12.28
2022-08-17T03:14:01.506Z,12.28
2022-08-17T03:15:01.503Z,11.94
2022-08-17T03:16:01.748Z,11.83
2022-08-17T03:17:01.506Z,11.94
2022-08-17T03:18:01.501Z,11.72
2022-08-17T03:19:01.499Z,11.83
2022-08-17T03:20:01.510Z,11.44
2022-08-17T03:21:01.513Z,11.61
2022-08-17T03:22:01.506Z,11.61
2022-08-17T03:23:01.796Z,11.28
2022-08-17T03:24:01.509Z,11.28
2022-08-17T03:25:01.507Z,11.44
2022-08-17T03:26:01.508Z,11.44
2022-08-17T03:27:01.513Z,11.28
2022-08-17T03:28:01.516Z,11.11
2022-08-17T03:29:01.512Z,11.44
2022-08-17T03:30:01.515Z,11
2022-08-17T03:31:01.512Z,11.11
2022-08-17T03:32:01.530Z,11
2022-08-17T03:33:01.510Z,11
2022-08-17T03:34:01.516Z,11.44
2022-08-17T03:35:01.521Z,11.44
2022-08-17T03:36:01.520Z,11.61
2022-08-17T03:37:01.527Z,11.44
2022-08-17T03:38:01.519Z,11.61
2022-08-17T03:39:01.521Z,11.44
2022-08-17T03:40:01.527Z,11.44
2022-08-17T03:41:01.515Z,11.44
2022-08-17T03:42:01.521Z,11.44
2022-08-17T03:43:01.530Z,11.44
2022-08-17T03:44:01.521Z,11.44
2022-08-17T03:45:01.520Z,11.61
2022-08-17T03:46:01.520Z,11.28
2022-08-17T03:47:01.527Z,11.44
2022-08-17T03:48:01.538Z,11.61
2022-08-17T03:49:01.516Z,11.61
2022-08-17T03:50:01.538Z,11.61
2022-08-17T03:51:01.529Z,11.44
2022-08-17T03:52:01.541Z,11.44
2022-08-17T03:53:01.522Z,11.61
2022-08-17T03:54:01.532Z,11.28
2022-08-17T03:55:01.533Z,11.28
2022-08-17T03:56:01.538Z,11.28
2022-08-17T03:57:01.534Z,11.44
2022-08-17T03:58:01.527Z,11.44
2022-08-17T03:59:01.532Z,10.83
2022-08-17T04:00:01.530Z,11.28
2022-08-17T04:01:01.571Z,11
2022-08-17T04:02:01.540Z,11.11
2022-08-17T04:03:01.529Z,11
2022-08-17T04:04:01.549Z,11.11
2022-08-17T04:05:01.534Z,11.28
2022-08-17T04:06:01.540Z,11.11
2022-08-17T04:07:01.539Z,11.11
2022-08-17T04:08:01.533Z,11.11
2022-08-17T04:09:01.535Z,11.28
2022-08-17T04:10:01.530Z,11.61
2022-08-17T04:11:01.535Z,11.61
2022-08-17T04:12:04.666Z,11.61
2022-08-17T04:13:01.561Z,11.44
2022-08-17T04:14:01.532Z,11.44
2022-08-17T04:15:01.536Z,11.44
2022-08-17T04:16:01.532Z,11.28
2022-08-17T04:17:01.539Z,11.44
2022-08-17T04:18:01.551Z,11.44
2022-08-17T04:19:01.531Z,11.44
2022-08-17T04:20:01.564Z,11.44
2022-08-17T04:21:01.538Z,11.44
2022-08-17T04:22:01.542Z,11.72
2022-08-17T04:23:01.543Z,11.44
2022-08-17T04:24:01.561Z,11.61
2022-08-17T04:25:01.553Z,11.72
2022-08-17T04:26:01.546Z,11.61
2022-08-17T04:27:01.538Z,11.61
2022-08-17T04:28:01.553Z,11.72
2022-08-17T04:29:01.559Z,11.72
2022-08-17T04:30:01.577Z,11.72
2022-08-17T04:31:01.551Z,11.61
2022-08-17T04:32:01.565Z,11.83
2022-08-17T04:33:05.587Z,11.83
2022-08-17T04:34:01.546Z,11.44
2022-08-17T04:35:01.541Z,11.83
2022-08-17T04:36:01.548Z,11.72
2022-08-17T04:37:01.557Z,11.94
2022-08-17T04:38:01.541Z,11.83
2022-08-17T04:39:01.553Z,11.61
2022-08-17T04:40:04.056Z,11.28
2022-08-17T04:41:01.540Z,11.28
2022-08-17T04:42:01.553Z,11
2022-08-17T04:43:01.548Z,11.11
2022-08-17T04:44:01.542Z,11.11
2022-08-17T04:45:01.550Z,11
2022-08-17T04:46:01.541Z,11
2022-08-17T04:47:01.549Z,11.28
2022-08-17T04:48:01.557Z,11.44
2022-08-17T04:49:01.542Z,11.28
2022-08-17T04:50:01.543Z,11.72
2022-08-17T04:51:01.552Z,11.72
2022-08-17T04:52:04.507Z,11.83
2022-08-17T04:53:01.759Z,11.83
2022-08-17T04:54:01.551Z,11.83
2022-08-17T04:55:01.547Z,11.83
2022-08-17T04:56:01.544Z,11.83
2022-08-17T04:57:01.549Z,11.83
2022-08-17T04:58:01.551Z,11.83
2022-08-17T04:59:01.562Z,11.83
2022-08-17T05:00:01.546Z,12.11
2022-08-17T05:01:01.679Z,11.83
2022-08-17T05:02:01.553Z,11.83
2022-08-17T05:03:01.547Z,12.28
2022-08-17T05:04:01.902Z,11.94
2022-08-17T05:05:01.555Z,12.28
2022-08-17T05:06:01.553Z,12.28
2022-08-17T05:07:01.544Z,12.44
2022-08-17T05:08:01.560Z,12.28
2022-08-17T05:09:01.553Z,12.11
2022-08-17T05:10:01.552Z,12.11
2022-08-17T05:11:01.565Z,11.94
2022-08-17T05:12:01.546Z,11.83
2022-08-17T05:13:01.546Z,11.61
2022-08-17T05:14:01.547Z,11.44
2022-08-17T05:15:01.554Z,11.28
2022-08-17T05:16:01.554Z,11.28
2022-08-17T05:17:01.554Z,11.28
2022-08-17T05:18:01.570Z,11.44
2022-08-17T05:19:01.556Z,11.44
2022-08-17T05:20:01.557Z,11.28
2022-08-17T05:21:01.554Z,11.83
2022-08-17T05:22:01.559Z,11.94
2022-08-17T05:23:01.559Z,12.44
2022-08-17T05:24:01.557Z,12.11
2022-08-17T05:25:01.926Z,12.72
2022-08-17T05:26:01.551Z,13.06
2022-08-17T05:27:04.270Z,12.89
2022-08-17T05:28:02.163Z,13.17
2022-08-17T05:29:02.907Z,13.17
2022-08-17T05:30:01.549Z,12.89
2022-08-17T05:31:01.559Z,12.72
2022-08-17T05:32:01.557Z,13.06
2022-08-17T05:33:01.559Z,13.17
2022-08-17T05:34:01.562Z,13.33
2022-08-17T05:35:01.558Z,13.33
2022-08-17T05:36:01.557Z,13.67
2022-08-17T05:37:01.557Z,13.94
2022-08-17T05:38:01.557Z,13.67
2022-08-17T05:39:01.551Z,13.67
2022-08-17T05:40:01.622Z,14.06
2022-08-17T05:41:01.555Z,14.06
2022-08-17T05:42:01.559Z,14.28
2022-08-17T05:43:01.563Z,14.56
2022-08-17T05:44:05.255Z,14.67
2022-08-17T05:45:01.560Z,15.39
2022-08-17T05:46:01.563Z,16.22
2022-08-17T05:47:01.556Z,17.17
2022-08-17T05:48:01.572Z,18.11
2022-08-17T05:49:01.559Z,19.06
2022-08-17T05:50:01.558Z,19.56
2022-08-17T05:51:01.562Z,20.22
2022-08-17T05:52:01.554Z,20.5
2022-08-17T05:53:01.562Z,19.28
2022-08-17T05:54:01.562Z,19.94
2022-08-17T05:55:01.557Z,20.72
2022-08-17T05:56:01.565Z,20.5
2022-08-17T05:57:01.558Z,20.72
2022-08-17T05:58:01.560Z,21.17
2022-08-17T05:59:01.564Z,22.06
2022-08-17T06:00:01.572Z,21.17
2022-08-17T06:01:01.649Z,20.33
2022-08-17T06:02:01.560Z,20.5
2022-08-17T06:03:01.563Z,19.28
2022-08-17T06:04:01.559Z,18.28
2022-08-17T06:05:01.565Z,17.44
2022-08-17T06:06:01.577Z,17.44
2022-08-17T06:07:01.570Z,17.28
2022-08-17T06:08:01.570Z,17.61
2022-08-17T06:09:01.569Z,17.78
2022-08-17T06:10:01.567Z,17.78
2022-08-17T06:11:01.572Z,18.28
2022-08-17T06:12:01.557Z,17.94
2022-08-17T06:13:01.562Z,18.56
2022-08-17T06:14:01.566Z,19.28
2022-08-17T06:15:01.571Z,18.89
2022-08-17T06:16:01.562Z,20.22
2022-08-17T06:17:01.579Z,20.33
2022-08-17T06:18:01.567Z,19.94
2022-08-17T06:19:01.567Z,19.72
2022-08-17T06:20:01.569Z,19.28
2022-08-17T06:21:01.575Z,20.22
2022-08-17T06:22:01.573Z,19.72
2022-08-17T06:23:01.559Z,21.17
2022-08-17T06:24:01.571Z,21.89
2022-08-17T06:25:01.578Z,21.89
2022-08-17T06:26:01.573Z,22.22
2022-08-17T06:27:01.571Z,22.94
2022-08-17T06:28:01.567Z,22.78
2022-08-17T06:29:01.582Z,22.22
2022-08-17T06:30:01.573Z,22.78
2022-08-17T06:31:01.646Z,22.22
2022-08-17T06:32:01.569Z,22.78
2022-08-17T06:33:01.569Z,22.56
2022-08-17T06:34:01.573Z,23.28
2022-08-17T06:35:01.572Z,23.83
2022-08-17T06:36:01.572Z,23.44
2022-08-17T06:37:01.568Z,24.39
2022-08-17T06:38:01.570Z,24.17
2022-08-17T06:39:01.571Z,23.28
2022-08-17T06:40:01.624Z,23.28
2022-08-17T06:41:01.578Z,23.44
2022-08-17T06:42:01.570Z,24.17
2022-08-17T06:43:05.427Z,24.17
2022-08-17T06:44:01.579Z,24.39
2022-08-17T06:45:01.584Z,24.17
2022-08-17T06:46:01.574Z,24.17
2022-08-17T06:47:01.577Z,23.44
2022-08-17T06:48:01.580Z,23.44
2022-08-17T06:49:01.576Z,24
2022-08-17T06:50:01.578Z,24.39
2022-08-17T06:51:01.584Z,24.39
2022-08-17T06:52:01.584Z,24
2022-08-17T06:53:01.662Z,23.67
2022-08-17T06:54:01.584Z,23.11
2022-08-17T06:55:01.576Z,23.44
2022-08-17T06:56:01.583Z,23.83
2022-08-17T06:57:01.595Z,23.83
2022-08-17T06:58:01.589Z,24.39
2022-08-17T06:59:01.581Z,24.56
2022-08-17T07:00:01.613Z,23.83
2022-08-17T07:01:01.654Z,24
2022-08-17T07:02:01.586Z,22.78
2022-08-17T07:03:01.581Z,23.11
2022-08-17T07:04:03.936Z,24
2022-08-17T07:05:01.581Z,24.89
2022-08-17T07:06:01.581Z,23.67
2022-08-17T07:07:01.602Z,24.56
2022-08-17T07:08:01.579Z,24.89
2022-08-17T07:09:01.577Z,25.5
2022-08-17T07:10:01.594Z,25.22
2022-08-17T07:11:01.580Z,24.89
2022-08-17T07:12:01.579Z,25.06
2022-08-17T07:13:01.579Z,24
2022-08-17T07:14:01.581Z,24.56
2022-08-17T07:15:01.579Z,24.89
2022-08-17T07:16:01.585Z,24.89
2022-08-17T07:17:01.583Z,25.78
2022-08-17T07:18:01.921Z,25.61
2022-08-17T07:19:01.578Z,25.78
2022-08-17T07:20:01.593Z,26.22
2022-08-17T07:21:01.580Z,26.78
2022-08-17T07:22:01.586Z,26.89
2022-08-17T07:23:01.580Z,26.06
2022-08-17T07:24:01.575Z,25.5
2022-08-17T07:25:01.587Z,25.61
2022-08-17T07:26:01.580Z,25.78
2022-08-17T07:27:01.590Z,25.61
2022-08-17T07:28:01.581Z,25.5
2022-08-17T07:29:01.583Z,25.06
2022-08-17T07:30:02.411Z,24.89
2022-08-17T07:31:01.581Z,24.89
2022-08-17T07:32:01.582Z,24.17
2022-08-17T07:33:01.577Z,23.83
2022-08-17T07:34:01.580Z,22.56
2022-08-17T07:35:01.583Z,21.17
2022-08-17T07:36:01.590Z,21.89
2022-08-17T07:37:01.579Z,21.72
2022-08-17T07:38:01.586Z,21.5
2022-08-17T07:39:01.581Z,21.17
2022-08-17T07:40:14.998Z,21
2022-08-17T07:41:01.590Z,20.72
2022-08-17T07:42:01.591Z,20.72
2022-08-17T07:43:01.582Z,21.17
2022-08-17T07:44:01.576Z,20.83
2022-08-17T07:45:01.578Z,21.17
2022-08-17T07:46:01.588Z,21.17
2022-08-17T07:47:01.590Z,20.83
2022-08-17T07:48:01.585Z,20.22
2022-08-17T07:49:01.587Z,20.22
2022-08-17T07:50:01.593Z,20.33
2022-08-17T07:51:01.594Z,20.33
2022-08-17T07:52:13.473Z,20.83
2022-08-17T07:53:01.593Z,21.22
2022-08-17T07:54:13.868Z,21.56
2022-08-17T07:55:01.595Z,21.72
2022-08-17T07:56:01.596Z,22.22
2022-08-17T07:57:01.593Z,22.22
2022-08-17T07:58:01.592Z,21.89
2022-08-17T07:59:01.592Z,21.89
2022-08-17T08:00:01.795Z,21.72
2022-08-17T08:01:01.591Z,21.39
2022-08-17T08:02:01.642Z,21.39
2022-08-17T08:03:01.614Z,21.72
2022-08-17T08:04:01.593Z,21.39
2022-08-17T08:05:02.223Z,20.83
2022-08-17T08:06:01.603Z,21.56
2022-08-17T08:07:01.602Z,22.06
2022-08-17T08:08:01.595Z,22.06
2022-08-17T08:09:01.604Z,22.39
2022-08-17T08:10:01.598Z,22.39
2022-08-17T08:11:01.605Z,21
2022-08-17T08:12:01.598Z,21
2022-08-17T08:13:01.602Z,20.72
2022-08-17T08:14:01.596Z,21.39
2022-08-17T08:15:01.606Z,21.89
2022-08-17T08:16:01.602Z,22.06
2022-08-17T08:17:01.603Z,22.22
2022-08-17T08:18:01.604Z,21.72
2022-08-17T08:19:01.608Z,20.83
2022-08-17T08:20:01.613Z,21
2022-08-17T08:21:01.603Z,20.83
2022-08-17T08:22:01.605Z,20.22
2022-08-17T08:23:01.605Z,20.83
2022-08-17T08:24:01.615Z,21
2022-08-17T08:25:01.601Z,21.56
2022-08-17T08:26:01.610Z,22.22
2022-08-17T08:27:01.614Z,22.39
2022-08-17T08:28:01.611Z,22.39
2022-08-17T08:29:01.636Z,22.06
2022-08-17T08:30:01.599Z,21.39
2022-08-17T08:31:01.608Z,21.22
2022-08-17T08:32:01.617Z,22.39
2022-08-17T08:33:01.607Z,22.39
2022-08-17T08:34:01.616Z,22.39
2022-08-17T08:35:03.479Z,22.94
2022-08-17T08:36:01.610Z,22.39
2022-08-17T08:37:16.219Z,22.06
2022-08-17T08:38:01.614Z,21.89
2022-08-17T08:39:01.630Z,22.56
2022-08-17T08:40:01.661Z,22.94
2022-08-17T08:41:01.612Z,22.94
2022-08-17T08:42:01.619Z,22.94
2022-08-17T08:43:01.620Z,21.56
2022-08-17T08:44:01.609Z,21.72
2022-08-17T08:45:04.325Z,21.22
2022-08-17T08:46:01.617Z,21
2022-08-17T08:47:01.613Z,21
2022-08-17T08:48:05.237Z,20.83
2022-08-17T08:49:05.001Z,20.83
2022-08-17T08:50:04.604Z,21.39
2022-08-17T08:51:01.618Z,21.56
2022-08-17T08:52:01.627Z,21.56
2022-08-17T08:53:01.626Z,21.22
2022-08-17T08:54:01.617Z,20.83
2022-08-17T08:55:01.621Z,20.72
2022-08-17T08:56:01.624Z,21.39
2022-08-17T08:57:23.055Z,21
2022-08-17T08:58:01.620Z,21.39
2022-08-17T08:59:01.620Z,21
2022-08-17T09:00:01.632Z,21
2022-08-17T09:01:01.680Z,21.89
2022-08-17T09:02:01.626Z,21.22
2022-08-17T09:03:01.625Z,21.39
2022-08-17T09:04:18.131Z,21.22
2022-08-17T09:05:17.021Z,21
2022-08-17T09:06:01.627Z,21.72
2022-08-17T09:07:01.635Z,21.56
2022-08-17T09:08:01.635Z,21.39
2022-08-17T09:09:01.624Z,21.39
2022-08-17T09:10:01.628Z,21.72
2022-08-17T09:11:01.622Z,21.72
2022-08-17T09:12:03.746Z,21.72
2022-08-17T09:13:09.481Z,21.89
2022-08-17T09:14:01.626Z,22.39
2022-08-17T09:15:01.643Z,21.89
2022-08-17T09:16:01.631Z,22.06
2022-08-17T09:17:01.634Z,22.06
2022-08-17T09:18:28.721Z,21.89
2022-08-17T09:19:04.577Z,22.06
2022-08-17T09:20:01.636Z,22.39
2022-08-17T09:21:01.631Z,22.78
2022-08-17T09:22:01.632Z,22.94
2022-08-17T09:23:01.635Z,22.39
2022-08-17T09:24:01.639Z,21.89
2022-08-17T09:25:01.633Z,21.89
2022-08-17T09:26:01.641Z,22.06
2022-08-17T09:27:01.636Z,22.61
2022-08-17T09:28:01.648Z,22.78
2022-08-17T09:29:01.637Z,22.61
2022-08-17T09:30:01.645Z,22.06
2022-08-17T09:31:01.638Z,22.22
2022-08-17T09:32:01.646Z,22.06
2022-08-17T09:33:01.653Z,22.39
2022-08-17T09:34:01.644Z,22.94
2022-08-17T09:35:01.645Z,23.11
2022-08-17T09:36:01.645Z,23.11
2022-08-17T09:37:01.646Z,23.67
2022-08-17T09:38:01.652Z,24.17
2022-08-17T09:39:01.664Z,24
2022-08-17T09:40:01.766Z,23.67
2022-08-17T09:41:01.660Z,24.5
2022-08-17T09:42:01.650Z,24.33
2022-08-17T09:43:01.659Z,24
2022-08-17T09:44:01.653Z,23.67
2022-08-17T09:45:01.656Z,24
2022-08-17T09:46:01.657Z,24.5
2022-08-17T09:47:01.655Z,24.5
2022-08-17T09:48:01.657Z,23.67
2022-08-17T09:49:01.651Z,23.67
2022-08-17T09:50:01.675Z,24
2022-08-17T09:51:04.435Z,24
2022-08-17T09:52:01.658Z,23.67
2022-08-17T09:53:01.663Z,24.17
2022-08-17T09:54:15.042Z,24.67
2022-08-17T09:55:01.661Z,24.33
2022-08-17T09:56:01.659Z,25.22
2022-08-17T09:57:26.155Z,25.22
2022-08-17T09:58:01.668Z,25.06
2022-08-17T09:59:01.656Z,25.22
2022-08-17T10:00:01.674Z,26
2022-08-17T10:01:01.780Z,25.78
2022-08-17T10:02:01.663Z,25.22
2022-08-17T10:03:01.655Z,24.5
2022-08-17T10:04:01.668Z,24.17
2022-08-17T10:05:01.668Z,23.67
2022-08-17T10:06:01.672Z,24.17
2022-08-17T10:07:01.669Z,24.5
2022-08-17T10:08:01.658Z,24.33
2022-08-17T10:09:01.666Z,23.67
2022-08-17T10:10:01.676Z,23.83
2022-08-17T10:11:01.671Z,24
2022-08-17T10:12:01.666Z,24
2022-08-17T10:13:01.674Z,23.83
2022-08-17T10:14:01.671Z,23.67
2022-08-17T10:15:05.062Z,24
2022-08-17T10:16:01.671Z,24.89
2022-08-17T10:17:01.676Z,25.06
2022-08-17T10:18:01.684Z,25.61
2022-08-17T10:19:01.676Z,25.44
2022-08-17T10:20:01.683Z,25.06
2022-08-17T10:21:01.678Z,24.17
2022-08-17T10:22:15.043Z,23.83
2022-08-17T10:23:01.681Z,23.44
2022-08-17T10:24:01.687Z,24.17
2022-08-17T10:25:02.237Z,24.33
2022-08-17T10:26:01.685Z,24.67
2022-08-17T10:27:01.685Z,25.22
2022-08-17T10:28:01.691Z,24.89
2022-08-17T10:29:01.674Z,25.22
2022-08-17T10:30:01.682Z,25.78
2022-08-17T10:31:30.731Z,25.78
2022-08-17T10:32:01.681Z,25.78
2022-08-17T10:33:01.679Z,25.44
2022-08-17T10:34:01.684Z,25.06
2022-08-17T10:35:01.683Z,26
2022-08-17T10:36:01.683Z,25.78
2022-08-17T10:37:01.692Z,25.61
2022-08-17T10:38:01.685Z,26.33
2022-08-17T10:39:01.687Z,26.89
2022-08-17T10:40:01.709Z,26.89
2022-08-17T10:41:01.690Z,26
2022-08-17T10:42:01.681Z,26.17
2022-08-17T10:43:01.686Z,26
2022-08-17T10:44:37.637Z,26.17
2022-08-17T10:45:01.678Z,26.17
2022-08-17T10:46:09.369Z,26
2022-08-17T10:47:01.690Z,26.33
2022-08-17T10:48:05.587Z,25.78
2022-08-17T10:49:01.688Z,26.33
2022-08-17T10:50:01.681Z,26.56
2022-08-17T10:51:01.701Z,26.33
2022-08-17T10:52:01.685Z,26.72
2022-08-17T10:53:01.690Z,26.89
2022-08-17T10:54:01.701Z,27.17
2022-08-17T10:55:01.691Z,27.44
2022-08-17T10:56:01.689Z,27.17
2022-08-17T10:57:01.692Z,27.17
2022-08-17T10:58:01.697Z,26.39
2022-08-17T10:59:01.701Z,26.94
2022-08-17T11:00:01.693Z,27.44
2022-08-17T11:01:01.765Z,27.56
2022-08-17T11:02:01.703Z,27.17
2022-08-17T11:03:01.692Z,27.33
2022-08-17T11:04:01.687Z,26.94
2022-08-17T11:05:01.694Z,26.89
2022-08-17T11:06:01.701Z,27.17
2022-08-17T11:07:01.691Z,27.94
2022-08-17T11:08:01.697Z,28.11
2022-08-17T11:09:01.691Z,28.11
2022-08-17T11:10:01.699Z,27.17
2022-08-17T11:11:01.702Z,26.94
2022-08-17T11:12:01.695Z,28.11
2022-08-17T11:13:01.707Z,28.11
2022-08-17T11:14:01.693Z,28.11
2022-08-17T11:15:01.696Z,27.94
2022-08-17T11:16:06.219Z,28.11
2022-08-17T11:17:01.698Z,27.39
2022-08-17T11:18:01.696Z,27.39
2022-08-17T11:19:01.704Z,27.39
2022-08-17T11:20:01.705Z,27.5
2022-08-17T11:21:01.696Z,27.5
2022-08-17T11:22:01.697Z,28.11
2022-08-17T11:23:01.700Z,28.72
2022-08-17T11:24:01.689Z,28.56
2022-08-17T11:25:01.689Z,28.56
2022-08-17T11:26:01.702Z,28.72
2022-08-17T11:27:01.693Z,28.11
2022-08-17T11:28:01.697Z,28.11
2022-08-17T11:29:01.705Z,29.33
2022-08-17T11:30:02.630Z,29.94
2022-08-17T11:31:01.695Z,30.17
2022-08-17T11:32:01.700Z,28.11
2022-08-17T11:33:01.695Z,27.72
2022-08-17T11:34:01.697Z,27.72
2022-08-17T11:35:01.697Z,27.94
2022-08-17T11:36:01.721Z,29.33
2022-08-17T11:37:01.695Z,29.94
2022-08-17T11:38:01.698Z,30.17
2022-08-17T11:39:01.695Z,29.33
2022-08-17T11:40:01.797Z,29.17
2022-08-17T11:41:01.702Z,28.72
2022-08-17T11:42:01.694Z,28.11
2022-08-17T11:43:01.715Z,28.33
2022-08-17T11:44:01.958Z,28.72
2022-08-17T11:45:01.706Z,29.17
2022-08-17T11:46:01.705Z,29.33
2022-08-17T11:47:01.709Z,29.5
2022-08-17T11:48:26.387Z,29.33
2022-08-17T11:49:01.698Z,28.72
2022-08-17T11:50:01.698Z,28.56
2022-08-17T11:51:01.702Z,28.33
2022-08-17T11:52:01.762Z,28.72
2022-08-17T11:53:01.700Z,29.33
2022-08-17T11:54:21.890Z,29.17
2022-08-17T11:55:17.920Z,28.72
2022-08-17T11:56:01.720Z,29.17
2022-08-17T11:57:01.718Z,28.72
2022-08-17T11:58:01.836Z,29.17
2022-08-17T11:59:01.711Z,29.33
2022-08-17T12:00:01.707Z,29.94
2022-08-17T12:01:01.701Z,29.5
2022-08-17T12:02:01.704Z,30.17
2022-08-17T12:03:01.706Z,29.33
2022-08-17T12:04:01.739Z,29.72
2022-08-17T12:05:01.708Z,29.33
2022-08-17T12:06:01.711Z,29.72
2022-08-17T12:07:01.708Z,29.94
2022-08-17T12:08:01.708Z,29.33
2022-08-17T12:09:01.710Z,28.72
2022-08-17T12:10:01.707Z,29.33
2022-08-17T12:11:01.734Z,30.17
2022-08-17T12:12:11.740Z,29.39
2022-08-17T12:13:01.709Z,29.5
2022-08-17T12:14:01.710Z,29.89
2022-08-17T12:15:10.869Z,29.28
2022-08-17T12:16:01.716Z,30.11
2022-08-17T12:17:01.718Z,30.11
2022-08-17T12:18:01.713Z,29.5
2022-08-17T12:19:01.714Z,30.11
2022-08-17T12:20:01.715Z,29.5
2022-08-17T12:21:01.726Z,29.5
2022-08-17T12:22:01.713Z,30.11
2022-08-17T12:23:01.725Z,30.11
2022-08-17T12:24:01.727Z,30.72
2022-08-17T12:25:01.728Z,30.89
2022-08-17T12:26:01.727Z,30.72
2022-08-17T12:27:01.722Z,30.11
2022-08-17T12:28:05.847Z,29.28
2022-08-17T12:29:01.719Z,29.5
2022-08-17T12:30:01.736Z,29.5
2022-08-17T12:31:01.733Z,29.89
2022-08-17T12:32:01.723Z,30.11
2022-08-17T12:33:01.731Z,30.11
2022-08-17T12:34:01.721Z,29.89
2022-08-17T12:35:01.728Z,30.11
2022-08-17T12:36:01.732Z,30.11
2022-08-17T12:37:01.732Z,30.11
2022-08-17T12:38:01.730Z,29.89
2022-08-17T12:39:13.228Z,29.5
2022-08-17T12:40:01.772Z,29.5
2022-08-17T12:41:01.731Z,29.89
2022-08-17T12:42:02.731Z,30.11
2022-08-17T12:43:01.729Z,30.28
2022-08-17T12:44:01.846Z,31.11
2022-08-17T12:45:01.734Z,30.72
2022-08-17T12:46:13.201Z,30.72
2022-08-17T12:47:01.737Z,30.72
2022-08-17T12:48:01.738Z,29.89
2022-08-17T12:49:01.737Z,30.5
2022-08-17T12:50:01.743Z,31.33
2022-08-17T12:51:01.737Z,31.94
2022-08-17T12:52:01.743Z,32.61
2022-08-17T12:53:02.630Z,31.72
2022-08-17T12:54:01.737Z,30.89
2022-08-17T12:55:01.744Z,30.28
2022-08-17T12:56:01.744Z,30.11
2022-08-17T12:57:01.742Z,29.72
2022-08-17T12:58:02.127Z,29.89